createdAt,value
2022-10-21T00:01:05.063Z,57.23
2022-10-21T00:03:31.405Z,57.38
2022-10-21T00:05:57.749Z,57.65
2022-10-21T00:08:24.107Z,57.82
2022-10-21T00:10:50.422Z,57.78
2022-10-21T00:13:16.762Z,57.89
2022-10-21T00:15:43.087Z,57.93
2022-10-21T00:18:09.426Z,58.02
2022-10-21T00:20:38.805Z,58.22
2022-10-21T00:23:02.097Z,58.29
2022-10-21T00:25:28.438Z,58.19
2022-10-21T00:27:54.850Z,58.20
2022-10-21T00:30:21.195Z,58.26
2022-10-21T00:32:47.522Z,58.44
2022-10-21T00:35:13.867Z,58.57
2022-10-21T00:37:40.586Z,58.41
2022-10-21T00:40:06.589Z,58.46
2022-10-21T00:42:32.912Z,58.68
2022-10-21T00:44:59.258Z,58.72
2022-10-21T00:47:25.575Z,58.87
2022-10-21T00:49:51.975Z,58.80
2022-10-21T00:52:18.259Z,58.82
2022-10-21T00:54:44.629Z,59.01
2022-10-21T00:57:10.968Z,59.21
2022-10-21T00:59:37.291Z,59.19
2022-10-21T01:02:03.692Z,59.24
2022-10-21T01:04:29.983Z,59.26
2022-10-21T01:06:56.356Z,59.55
2022-10-21T01:09:22.695Z,59.24
2022-10-21T01:11:49.011Z,59.07
2022-10-21T01:14:15.384Z,59.02
2022-10-21T01:16:44.290Z,58.94
2022-10-21T01:19:08.092Z,59.11
2022-10-21T01:21:34.419Z,59.23
2022-10-21T01:24:00.764Z,59.20
2022-10-21T01:26:27.059Z,59.37
2022-10-21T01:28:53.383Z,59.38
2022-10-21T01:31:19.726Z,59.34
2022-10-21T01:33:46.162Z,59.35
2022-10-21T01:36:12.554Z,59.26
2022-10-21T01:38:38.891Z,59.24
2022-10-21T01:41:05.237Z,59.22
2022-10-21T01:43:31.577Z,59.26
2022-10-21T01:45:57.920Z,59.38
2022-10-21T01:48:24.260Z,59.63
2022-10-21T01:50:50.613Z,59.76
2022-10-21T01:53:16.988Z,59.66
2022-10-21T01:55:43.328Z,59.67
2022-10-21T01:58:09.666Z,59.89
2022-10-21T02:00:35.987Z,60.03
2022-10-21T02:03:02.330Z,60.26
2022-10-21T02:05:28.646Z,60.29
2022-10-21T02:07:55.293Z,60.39
2022-10-21T02:10:21.932Z,60.48
2022-10-21T02:12:48.219Z,60.27
2022-10-21T02:15:14.541Z,60.32
2022-10-21T02:17:40.871Z,60.38
2022-10-21T02:20:07.221Z,60.28
2022-10-21T02:22:33.552Z,60.48
2022-10-21T02:24:59.870Z,60.70
2022-10-21T02:27:26.261Z,60.74
2022-10-21T02:29:52.561Z,60.75
2022-10-21T02:32:18.897Z,61.08
2022-10-21T02:34:45.241Z,61.18
2022-10-21T02:37:11.573Z,60.97
2022-10-21T02:39:37.917Z,60.86
2022-10-21T02:42:04.241Z,60.93
2022-10-21T02:44:30.562Z,60.75
2022-10-21T02:46:56.882Z,60.49
2022-10-21T02:49:23.224Z,60.61
2022-10-21T02:51:49.616Z,60.47
2022-10-21T02:54:15.967Z,60.47
2022-10-21T02:56:42.309Z,60.38
2022-10-21T02:59:08.675Z,60.44
2022-10-21T03:01:34.994Z,60.78
2022-10-21T03:04:01.334Z,60.78
2022-10-21T03:06:27.659Z,60.88
2022-10-21T03:08:54.019Z,61.07
2022-10-21T03:11:20.304Z,61.07
2022-10-21T03:13:46.656Z,61.24
2022-10-21T03:16:13.035Z,61.39
2022-10-21T03:18:39.321Z,61.36
2022-10-21T03:21:05.674Z,61.31
2022-10-21T03:23:32.022Z,61.41
2022-10-21T03:25:58.360Z,61.47
2022-10-21T03:28:24.682Z,61.49
2022-10-21T03:30:51.008Z,61.62
2022-10-21T03:33:17.329Z,61.54
2022-10-21T03:35:43.666Z,61.65
2022-10-21T03:38:09.989Z,61.70
2022-10-21T03:40:36.328Z,61.71
2022-10-21T03:43:02.672Z,61.75
2022-10-21T03:45:29.011Z,61.75
2022-10-21T03:47:55.351Z,61.91
2022-10-21T03:50:26.085Z,62.00
2022-10-21T03:52:48.086Z,61.99
2022-10-21T03:55:14.398Z,61.94
2022-10-21T03:57:41.106Z,62.05
2022-10-21T04:00:07.144Z,62.15
2022-10-21T04:02:33.464Z,62.22
2022-10-21T04:04:59.801Z,62.29
2022-10-21T04:07:26.124Z,62.46
2022-10-21T04:09:52.502Z,62.55
2022-10-21T04:12:18.821Z,62.59
2022-10-21T04:14:45.190Z,62.81
2022-10-21T04:17:11.535Z,63.00
2022-10-21T04:19:37.859Z,63.15
2022-10-21T04:22:04.195Z,63.35
2022-10-21T04:24:30.520Z,63.37
2022-10-21T04:26:56.863Z,63.43
2022-10-21T04:29:23.185Z,63.46
2022-10-21T04:31:49.584Z,63.53
2022-10-21T04:34:15.862Z,63.63
2022-10-21T04:36:42.192Z,63.67
2022-10-21T04:39:08.510Z,63.72
2022-10-21T04:41:34.836Z,63.74
2022-10-21T04:44:01.171Z,66.19
2022-10-21T04:46:27.537Z,66.75
2022-10-21T04:48:53.887Z,65.86
2022-10-21T04:51:20.292Z,65.49
2022-10-21T04:53:46.574Z,65.49
2022-10-21T04:56:12.898Z,65.58
2022-10-21T04:58:39.323Z,65.47
2022-10-21T05:01:05.746Z,65.35
2022-10-21T05:03:31.983Z,65.29
2022-10-21T05:05:58.330Z,65.36
2022-10-21T05:08:24.668Z,65.17
2022-10-21T05:10:51.039Z,65.21
2022-10-21T05:13:17.396Z,65.13
2022-10-21T05:15:43.719Z,64.97
2022-10-21T05:18:10.050Z,64.84
2022-10-21T05:20:36.380Z,64.81
2022-10-21T05:23:02.699Z,64.80
2022-10-21T05:25:31.780Z,64.62
2022-10-21T05:27:55.363Z,64.43
2022-10-21T05:30:21.705Z,64.20
2022-10-21T05:32:48.042Z,64.09
2022-10-21T05:35:14.392Z,63.87
2022-10-21T05:37:40.739Z,63.54
2022-10-21T05:40:07.085Z,63.26
2022-10-21T05:42:33.437Z,62.86
2022-10-21T05:44:59.778Z,62.44
2022-10-21T05:47:26.116Z,62.05
2022-10-21T05:49:52.466Z,61.57
2022-10-21T05:52:18.833Z,61.19
2022-10-21T05:54:45.156Z,60.74
2022-10-21T05:57:11.492Z,60.31
2022-10-21T05:59:37.811Z,59.97
2022-10-21T06:02:04.160Z,59.34
2022-10-21T06:04:32.903Z,59.00
2022-10-21T06:09:23.232Z,57.78
2022-10-21T06:11:49.591Z,57.35
2022-10-21T06:14:15.923Z,56.91
2022-10-21T06:16:42.306Z,56.43
2022-10-21T06:19:08.642Z,55.90
2022-10-21T06:21:34.961Z,55.74
2022-10-21T06:24:01.298Z,55.89
2022-10-21T06:26:27.663Z,55.00
2022-10-21T06:28:53.983Z,54.54
2022-10-21T06:31:20.323Z,54.64
2022-10-21T06:33:46.655Z,54.17
2022-10-21T06:36:12.985Z,53.68
2022-10-21T06:38:39.301Z,53.39
2022-10-21T06:41:09.139Z,53.11
2022-10-21T06:43:32.042Z,53.51
2022-10-21T06:45:58.412Z,53.93
2022-10-21T06:48:24.735Z,53.31
2022-10-21T06:50:51.071Z,52.66
2022-10-21T06:53:17.414Z,53.46
2022-10-21T06:55:43.778Z,52.86
2022-10-21T06:58:10.116Z,52.66
2022-10-21T07:00:36.488Z,52.83
2022-10-21T07:03:02.839Z,52.72
2022-10-21T07:05:29.169Z,51.90
2022-10-21T07:07:55.547Z,51.90
2022-10-21T07:10:21.872Z,51.63
2022-10-21T07:12:48.188Z,51.26
2022-10-21T07:15:14.548Z,51.29
2022-10-21T07:17:41.113Z,51.70
2022-10-21T07:20:07.409Z,51.41
2022-10-21T07:22:33.741Z,51.36
2022-10-21T07:27:26.406Z,50.53
2022-10-21T07:29:52.736Z,50.76
2022-10-21T07:32:19.119Z,50.56
2022-10-21T07:34:45.430Z,49.82
2022-10-21T07:37:11.797Z,48.59
2022-10-21T07:39:38.178Z,47.91
2022-10-21T07:42:04.530Z,48.05
2022-10-21T07:44:30.860Z,48.48
2022-10-21T07:46:57.186Z,47.83
2022-10-21T07:49:23.546Z,48.00
2022-10-21T07:51:49.897Z,47.28
2022-10-21T07:54:16.286Z,47.27
2022-10-21T07:56:42.640Z,47.34
2022-10-21T07:59:12.600Z,47.76
2022-10-21T08:01:35.406Z,46.83
2022-10-21T08:04:01.658Z,46.95
2022-10-21T08:06:28.036Z,47.17
2022-10-21T08:08:54.421Z,47.80
2022-10-21T08:11:20.767Z,48.02
2022-10-21T08:13:47.113Z,48.22
2022-10-21T08:16:13.442Z,48.33
2022-10-21T08:18:39.767Z,47.96
2022-10-21T08:21:06.098Z,47.32
2022-10-21T08:23:32.446Z,47.11
2022-10-21T08:25:58.786Z,47.29
2022-10-21T08:28:25.107Z,47.32
2022-10-21T08:30:51.430Z,46.77
2022-10-21T08:33:17.781Z,45.82
2022-10-21T08:35:44.125Z,44.88
2022-10-21T08:38:10.471Z,45.36
2022-10-21T08:40:36.848Z,44.52
2022-10-21T08:43:03.230Z,44.69
2022-10-21T08:45:29.522Z,44.52
2022-10-21T08:47:55.844Z,44.00
2022-10-21T08:50:22.160Z,44.02
2022-10-21T08:52:48.501Z,44.03
2022-10-21T08:55:14.833Z,43.12
2022-10-21T08:57:41.538Z,42.77
2022-10-21T09:00:07.546Z,42.32
2022-10-21T09:02:33.941Z,42.00
2022-10-21T09:05:00.228Z,41.79
2022-10-21T09:07:26.588Z,41.83
2022-10-21T09:09:52.973Z,41.50
2022-10-21T09:12:19.296Z,41.57
2022-10-21T09:14:45.660Z,40.17
2022-10-21T09:17:11.986Z,41.08
2022-10-21T09:19:38.339Z,40.50
2022-10-21T09:22:22.844Z,39.96
2022-10-21T09:24:31.014Z,39.88
2022-10-21T09:26:57.354Z,41.28
2022-10-21T09:29:23.686Z,40.21
2022-10-21T09:31:55.182Z,40.32
2022-10-21T09:34:16.364Z,38.96
2022-10-21T09:36:42.689Z,39.30
2022-10-21T09:39:09.011Z,38.86
2022-10-21T09:41:35.333Z,37.64
2022-10-21T09:44:01.696Z,38.09
2022-10-21T09:46:28.019Z,37.41
2022-10-21T09:49:28.979Z,37.25
2022-10-21T09:51:20.707Z,38.11
2022-10-21T09:53:53.696Z,38.21
2022-10-21T09:56:13.396Z,37.89
2022-10-21T09:58:39.768Z,37.09
2022-10-21T10:01:06.122Z,36.35
2022-10-21T10:03:32.461Z,36.11
2022-10-21T10:05:58.912Z,36.88
2022-10-21T10:08:25.239Z,36.89
2022-10-21T10:10:51.589Z,35.49
2022-10-21T10:13:17.981Z,37.69
2022-10-21T10:15:44.294Z,36.05
2022-10-21T10:18:10.646Z,35.64
2022-10-21T10:20:36.999Z,35.04
2022-10-21T10:23:03.346Z,35.36
2022-10-21T10:25:29.690Z,35.96
2022-10-21T10:27:56.081Z,35.44
2022-10-21T10:30:22.421Z,34.91
2022-10-21T10:32:48.760Z,35.51
2022-10-21T10:35:15.111Z,34.33
2022-10-21T10:40:07.837Z,34.85
2022-10-21T10:42:34.162Z,33.86
2022-10-21T10:45:00.486Z,34.13
2022-10-21T10:47:26.833Z,34.38
2022-10-21T10:49:53.176Z,34.63
2022-10-21T10:52:19.517Z,33.99
2022-10-21T10:54:45.859Z,33.81
2022-10-21T10:57:12.203Z,33.75
2022-10-21T10:59:38.579Z,34.14
2022-10-21T11:02:04.863Z,34.12
2022-10-21T11:04:31.228Z,34.50
2022-10-21T11:06:57.558Z,33.67
2022-10-21T11:09:26.478Z,33.33
2022-10-21T11:11:50.252Z,33.77
2022-10-21T11:14:19.089Z,34.09
2022-10-21T11:16:57.340Z,33.78
2022-10-21T11:19:09.293Z,33.28
2022-10-21T11:21:35.622Z,32.84
2022-10-21T11:24:01.967Z,32.96
2022-10-21T11:26:28.294Z,33.12
2022-10-21T11:28:54.629Z,33.33
2022-10-21T11:31:20.975Z,34.89
2022-10-21T11:33:47.339Z,33.96
2022-10-21T11:36:13.693Z,32.85
2022-10-21T11:38:40.036Z,32.68
2022-10-21T11:41:06.445Z,32.75
2022-10-21T11:43:32.722Z,33.03
2022-10-21T11:45:59.044Z,33.52
2022-10-21T11:48:25.426Z,33.55
2022-10-21T11:50:51.733Z,33.29
2022-10-21T11:53:18.081Z,33.11
2022-10-21T11:55:44.430Z,32.87
2022-10-21T11:58:10.782Z,32.96
2022-10-21T12:00:37.129Z,33.20
2022-10-21T12:03:03.508Z,33.41
2022-10-21T12:05:29.864Z,33.33
2022-10-21T12:07:56.212Z,32.94
2022-10-21T12:10:22.550Z,32.85
2022-10-21T12:12:48.957Z,32.99
2022-10-21T12:15:15.289Z,33.36
2022-10-21T12:17:41.616Z,33.69
2022-10-21T12:20:07.997Z,33.41
2022-10-21T12:22:34.313Z,33.99
2022-10-21T12:25:00.701Z,34.13
2022-10-21T12:27:27.046Z,33.54
2022-10-21T12:29:53.386Z,33.46
2022-10-21T12:32:19.741Z,33.74
2022-10-21T12:34:46.079Z,33.88
2022-10-21T12:37:12.421Z,33.93
2022-10-21T12:39:38.797Z,34.50
2022-10-21T12:42:05.122Z,34.33
2022-10-21T12:44:31.512Z,34.67
2022-10-21T12:46:57.840Z,33.81
2022-10-21T12:49:24.183Z,33.76
2022-10-21T12:51:50.511Z,33.82
2022-10-21T12:54:16.871Z,34.26
2022-10-21T12:56:43.234Z,34.10
2022-10-21T12:59:09.553Z,34.30
2022-10-21T13:01:35.905Z,34.54
2022-10-21T13:04:02.224Z,34.69
2022-10-21T13:06:28.554Z,34.37
2022-10-21T13:08:54.960Z,34.41
2022-10-21T13:11:21.216Z,34.87
2022-10-21T13:13:47.542Z,34.99
2022-10-21T13:16:13.942Z,34.94
2022-10-21T13:18:40.263Z,35.06
2022-10-21T13:21:06.613Z,35.49
2022-10-21T13:23:32.957Z,35.09
2022-10-21T13:25:59.305Z,35.21
2022-10-21T13:28:25.632Z,35.27
2022-10-21T13:30:51.979Z,35.39
2022-10-21T13:33:18.337Z,35.58
2022-10-21T13:35:44.677Z,35.99
2022-10-21T13:38:11.004Z,36.19
2022-10-21T13:40:37.353Z,36.52
2022-10-21T13:43:03.696Z,36.58
2022-10-21T13:45:30.104Z,36.62
2022-10-21T13:47:56.358Z,36.81
2022-10-21T13:50:22.734Z,36.60
2022-10-21T13:52:49.058Z,36.90
2022-10-21T13:55:15.408Z,37.27
2022-10-21T13:57:41.856Z,37.35
2022-10-21T14:00:08.131Z,37.42
2022-10-21T14:02:34.471Z,37.77
2022-10-21T14:05:00.836Z,38.11
2022-10-21T14:07:27.159Z,38.37
2022-10-21T14:09:53.526Z,38.45
2022-10-21T14:12:19.851Z,38.39
2022-10-21T14:14:46.201Z,38.36
2022-10-21T14:17:12.524Z,38.48
2022-10-21T14:19:38.848Z,38.50
2022-10-21T14:24:31.517Z,38.87
2022-10-21T14:26:57.832Z,38.90
2022-10-21T14:29:24.178Z,39.37
2022-10-21T14:31:50.523Z,39.33
2022-10-21T14:34:16.881Z,39.29
2022-10-21T14:36:43.201Z,39.61
2022-10-21T14:39:09.531Z,39.71
2022-10-21T14:41:35.884Z,39.80
2022-10-21T14:44:02.232Z,40.26
2022-10-21T14:46:28.588Z,40.34
2022-10-21T14:48:54.938Z,40.60
2022-10-21T14:51:21.573Z,40.73
2022-10-21T14:53:47.649Z,40.36
2022-10-21T14:56:14.025Z,40.58
2022-10-21T14:58:40.374Z,40.76
2022-10-21T15:01:06.721Z,40.83
2022-10-21T15:03:33.110Z,41.13
2022-10-21T15:05:59.584Z,41.35
2022-10-21T15:08:25.891Z,41.63
2022-10-21T15:10:52.212Z,41.71
2022-10-21T15:13:18.568Z,41.83
2022-10-21T15:15:48.259Z,42.20
2022-10-21T15:18:11.249Z,42.60
2022-10-21T15:20:37.606Z,42.58
2022-10-21T15:23:03.953Z,42.77
2022-10-21T15:25:31.085Z,43.21
2022-10-21T15:27:57.423Z,43.34
2022-10-21T15:30:23.713Z,43.42
2022-10-21T15:32:50.087Z,43.56
2022-10-21T15:35:16.439Z,43.80
2022-10-21T15:37:42.834Z,44.17
2022-10-21T15:40:09.135Z,44.51
2022-10-21T15:42:35.568Z,44.77
2022-10-21T15:45:01.906Z,44.81
2022-10-21T15:47:28.262Z,45.06
2022-10-21T15:49:54.583Z,45.05
2022-10-21T15:52:20.910Z,45.23
2022-10-21T15:54:47.234Z,45.56
2022-10-21T15:57:13.581Z,45.83
2022-10-21T15:59:39.918Z,46.13
2022-10-21T16:02:06.351Z,46.34
2022-10-21T16:04:32.574Z,46.49
2022-10-21T16:06:58.900Z,46.81
2022-10-21T16:09:25.287Z,47.15
2022-10-21T16:12:00.125Z,47.37
2022-10-21T16:14:17.973Z,47.60
2022-10-21T16:16:44.337Z,47.69
2022-10-21T16:19:10.663Z,47.62
2022-10-21T16:21:36.987Z,47.64
2022-10-21T16:24:03.342Z,47.89
2022-10-21T16:26:29.679Z,47.77
2022-10-21T16:28:55.989Z,47.71
2022-10-21T16:31:22.336Z,48.01
2022-10-21T16:33:48.694Z,48.33
2022-10-21T16:36:15.041Z,48.37
2022-10-21T16:38:41.381Z,48.42
2022-10-21T16:41:07.827Z,48.54
2022-10-21T16:43:34.194Z,48.46
2022-10-21T16:46:00.547Z,48.32
2022-10-21T16:48:26.886Z,48.45
2022-10-21T16:50:53.228Z,48.52
2022-10-21T16:53:19.563Z,48.32
2022-10-21T16:55:45.917Z,48.28
2022-10-21T16:58:12.264Z,48.45
2022-10-21T17:00:38.680Z,48.39
2022-10-21T17:03:04.972Z,48.65
2022-10-21T17:05:31.405Z,48.70
2022-10-21T17:07:57.676Z,48.93
2022-10-21T17:10:24.017Z,48.78
2022-10-21T17:12:50.334Z,48.00
2022-10-21T17:15:16.682Z,48.15
2022-10-21T17:17:43.067Z,48.78
2022-10-21T17:20:09.340Z,49.03
2022-10-21T17:22:35.795Z,49.26
2022-10-21T17:25:02.146Z,49.43
2022-10-21T17:27:28.460Z,49.67
2022-10-21T17:29:54.806Z,49.45
2022-10-21T17:32:21.144Z,49.89
2022-10-21T17:34:47.489Z,50.14
2022-10-21T17:37:13.831Z,50.21
2022-10-21T17:39:40.176Z,49.82
2022-10-21T17:42:06.555Z,50.14
2022-10-21T17:44:32.970Z,50.33
2022-10-21T17:46:59.291Z,50.69
2022-10-21T17:49:25.622Z,50.75
2022-10-21T17:51:51.967Z,50.99
2022-10-21T17:54:18.300Z,51.05
2022-10-21T17:56:44.630Z,51.11
2022-10-21T17:59:11.013Z,51.02
2022-10-21T18:01:37.367Z,51.22
2022-10-21T18:04:03.621Z,51.27
2022-10-21T18:06:29.952Z,51.39
2022-10-21T18:08:56.416Z,51.66
2022-10-21T18:11:22.682Z,51.66
2022-10-21T18:13:53.453Z,51.80
2022-10-21T18:16:15.331Z,52.18
2022-10-21T18:21:08.002Z,52.13
2022-10-21T18:23:34.351Z,52.31
2022-10-21T18:26:00.670Z,52.40
2022-10-21T18:28:26.993Z,52.46
2022-10-21T18:30:53.350Z,52.77
2022-10-21T18:33:19.677Z,52.57
2022-10-21T18:35:46.021Z,52.81
2022-10-21T18:38:12.379Z,52.79
2022-10-21T18:40:39.591Z,54.05
2022-10-21T18:43:05.080Z,53.89
2022-10-21T18:45:31.364Z,53.88
2022-10-21T18:47:57.697Z,54.05
2022-10-21T18:50:24.081Z,54.00
2022-10-21T18:52:50.398Z,53.93
2022-10-21T18:55:16.738Z,53.89
2022-10-21T18:57:43.225Z,53.73
2022-10-21T19:00:09.454Z,54.05
2022-10-21T19:02:35.781Z,53.93
2022-10-21T19:05:02.525Z,53.96
2022-10-21T19:07:28.428Z,54.06
2022-10-21T19:09:54.784Z,53.83
2022-10-21T19:12:23.562Z,53.56
2022-10-21T19:14:47.444Z,53.96
2022-10-21T19:17:13.785Z,54.16
2022-10-21T19:19:40.113Z,54.26
2022-10-21T19:22:06.450Z,53.95
2022-10-21T19:24:32.802Z,54.11
2022-10-21T19:26:59.142Z,54.34
2022-10-21T19:29:25.456Z,54.30
2022-10-21T19:31:51.829Z,54.51
2022-10-21T19:34:18.178Z,54.70
2022-10-21T19:36:44.500Z,54.81
2022-10-21T19:39:10.858Z,54.93
2022-10-21T19:41:37.237Z,55.14
2022-10-21T19:44:03.572Z,55.29
2022-10-21T19:46:29.927Z,55.30
2022-10-21T19:48:56.287Z,55.33
2022-10-21T19:51:22.648Z,55.26
2022-10-21T19:53:48.961Z,55.42
2022-10-21T19:56:15.343Z,55.36
2022-10-21T19:58:41.723Z,55.60
2022-10-21T20:01:08.110Z,55.70
2022-10-21T20:03:34.423Z,55.71
2022-10-21T20:06:00.779Z,55.70
2022-10-21T20:10:53.456Z,55.97
2022-10-21T20:13:19.802Z,56.20
2022-10-21T20:15:46.149Z,56.34
2022-10-21T20:18:12.503Z,56.53
2022-10-21T20:20:38.850Z,56.62
2022-10-21T20:23:05.176Z,56.67
2022-10-21T20:25:31.503Z,56.68
2022-10-21T20:27:57.950Z,56.71
2022-10-21T20:30:24.299Z,56.77
2022-10-21T20:32:50.641Z,56.87
2022-10-21T20:35:17.012Z,56.89
2022-10-21T20:37:43.325Z,56.96
2022-10-21T20:40:09.674Z,56.86
2022-10-21T20:42:36.031Z,57.08
2022-10-21T20:45:02.376Z,57.19
2022-10-21T20:47:30.849Z,57.23
2022-10-21T20:49:56.002Z,57.27
2022-10-21T20:52:22.351Z,57.40
2022-10-21T20:54:48.692Z,57.54
2022-10-21T20:57:15.033Z,57.61
2022-10-21T20:59:41.374Z,57.79
2022-10-21T21:02:07.718Z,57.87
2022-10-21T21:04:34.064Z,57.64
2022-10-21T21:07:00.391Z,57.67
2022-10-21T21:09:44.096Z,57.55
2022-10-21T21:11:53.078Z,57.67
2022-10-21T21:14:19.386Z,57.52
2022-10-21T21:16:45.724Z,57.38
2022-10-21T21:19:12.048Z,57.33
2022-10-21T21:21:38.389Z,57.42
2022-10-21T21:24:04.732Z,57.30
2022-10-21T21:26:31.085Z,57.68
2022-10-21T21:28:57.455Z,57.90
2022-10-21T21:31:24.133Z,57.94
2022-10-21T21:33:50.484Z,58.08
2022-10-21T21:36:16.824Z,58.21
2022-10-21T21:38:43.203Z,58.18
2022-10-21T21:41:10.626Z,58.22
2022-10-21T21:43:35.857Z,58.52
2022-10-21T21:46:02.206Z,58.53
2022-10-21T21:48:28.587Z,58.64
2022-10-21T21:50:54.900Z,58.71
2022-10-21T21:53:21.228Z,58.84
2022-10-21T21:55:47.569Z,58.80
2022-10-21T21:58:13.917Z,58.59
2022-10-21T22:00:40.293Z,58.46
2022-10-21T22:03:06.625Z,58.62
2022-10-21T22:05:32.948Z,58.86
2022-10-21T22:07:59.275Z,59.04
2022-10-21T22:10:25.601Z,59.14
2022-10-21T22:12:51.923Z,59.12
2022-10-21T22:15:42.905Z,59.23
2022-10-21T22:17:44.637Z,59.29
2022-10-21T22:20:10.964Z,59.46
2022-10-21T22:22:37.300Z,59.64
2022-10-21T22:25:03.626Z,59.67
2022-10-21T22:27:29.967Z,59.75
2022-10-21T22:29:56.362Z,59.74
2022-10-21T22:32:22.699Z,59.84
2022-10-21T22:34:49.018Z,60.00
2022-10-21T22:37:15.376Z,60.24
2022-10-21T22:39:41.703Z,60.52
2022-10-21T22:42:08.026Z,60.78
2022-10-21T22:44:34.405Z,61.03
2022-10-21T22:47:00.725Z,61.11
2022-10-21T22:49:27.052Z,61.18
2022-10-21T22:51:53.398Z,61.23
2022-10-21T22:54:42.990Z,61.35
2022-10-21T22:56:46.056Z,61.31
2022-10-21T22:59:12.388Z,61.35
2022-10-21T23:01:38.751Z,61.41
2022-10-21T23:04:05.129Z,61.48
2022-10-21T23:06:31.442Z,61.48
2022-10-21T23:08:57.835Z,61.47
2022-10-21T23:11:24.109Z,61.44
2022-10-21T23:14:02.092Z,61.50
2022-10-21T23:16:16.756Z,61.60
2022-10-21T23:18:43.111Z,61.59
2022-10-21T23:21:09.431Z,61.78
2022-10-21T23:23:35.777Z,61.78
2022-10-21T23:26:02.113Z,61.86
2022-10-21T23:28:28.510Z,62.00
2022-10-21T23:30:54.841Z,62.17
2022-10-21T23:33:21.185Z,62.31
2022-10-21T23:35:47.500Z,62.24
2022-10-21T23:38:13.876Z,62.12
2022-10-21T23:40:40.215Z,62.07
2022-10-21T23:43:06.536Z,62.07
2022-10-21T23:45:32.906Z,62.14
2022-10-21T23:47:59.239Z,61.93
2022-10-21T23:50:25.558Z,61.78
2022-10-21T23:52:51.933Z,61.81
2022-10-21T23:55:18.342Z,62.05
2022-10-21T23:57:44.655Z,62.28
